sensor_id;sensor_type;location;lat;lon;timestamp;P1;durP1;ratioP1;P2;durP2;ratioP2
12348;SDS011;5974;42.710;27.258;2023-07-24T00:00:06;7.20;;;6.50;;
12348;SDS011;5974;42.710;27.258;2023-07-24T00:02:34;6.83;;;6.07;;
12348;SDS011;5974;42.710;27.258;2023-07-24T00:05:02;6.90;;;6.30;;
12348;SDS011;5974;42.710;27.258;2023-07-24T00:07:30;6.53;;;5.93;;
12348;SDS011;5974;42.710;27.258;2023-07-24T00:09:57;6.67;;;6.07;;
12348;SDS011;5974;42.710;27.258;2023-07-24T00:12:23;6.83;;;6.10;;
12348;SDS011;5974;42.710;27.258;2023-07-24T00:14:51;6.90;;;6.40;;
12348;SDS011;5974;42.710;27.258;2023-07-24T00:17:18;6.67;;;5.93;;
12348;SDS011;5974;42.710;27.258;2023-07-24T00:19:45;6.80;;;6.20;;
12348;SDS011;5974;42.710;27.258;2023-07-24T00:22:15;6.80;;;6.17;;
12348;SDS011;5974;42.710;27.258;2023-07-24T00:24:42;7.23;;;6.53;;
12348;SDS011;5974;42.710;27.258;2023-07-24T00:27:09;8.53;;;6.63;;
12348;SDS011;5974;42.710;27.258;2023-07-24T00:29:36;7.23;;;6.60;;
12348;SDS011;5974;42.710;27.258;2023-07-24T00:32:03;8.27;;;6.97;;
12348;SDS011;5974;42.710;27.258;2023-07-24T00:34:30;11.57;;;6.50;;
12348;SDS011;5974;42.710;27.258;2023-07-24T00:36:57;7.23;;;6.13;;
12348;SDS011;5974;42.710;27.258;2023-07-24T00:39:25;6.80;;;6.20;;
12348;SDS011;5974;42.710;27.258;2023-07-24T00:41:53;8.57;;;7.10;;
12348;SDS011;5974;42.710;27.258;2023-07-24T00:44:20;7.80;;;6.70;;
12348;SDS011;5974;42.710;27.258;2023-07-24T00:46:47;6.87;;;5.90;;
12348;SDS011;5974;42.710;27.258;2023-07-24T00:49:14;8.83;;;6.17;;
12348;SDS011;5974;42.710;27.258;2023-07-24T00:51:42;6.87;;;6.17;;
12348;SDS011;5974;42.710;27.258;2023-07-24T00:54:09;7.33;;;6.03;;
12348;SDS011;5974;42.710;27.258;2023-07-24T00:56:41;8.50;;;6.70;;
12348;SDS011;5974;42.710;27.258;2023-07-24T00:59:08;7.23;;;6.63;;
12348;SDS011;5974;42.710;27.258;2023-07-24T01:01:35;6.90;;;6.40;;
12348;SDS011;5974;42.710;27.258;2023-07-24T01:04:03;7.50;;;6.57;;
12348;SDS011;5974;42.710;27.258;2023-07-24T01:06:32;7.77;;;6.23;;
12348;SDS011;5974;42.710;27.258;2023-07-24T01:08:59;7.53;;;6.23;;
12348;SDS011;5974;42.710;27.258;2023-07-24T01:11:27;7.03;;;6.03;;
12348;SDS011;5974;42.710;27.258;2023-07-24T01:13:57;6.30;;;5.70;;
12348;SDS011;5974;42.710;27.258;2023-07-24T01:16:30;7.23;;;6.33;;
12348;SDS011;5974;42.710;27.258;2023-07-24T01:19:02;7.60;;;6.27;;
12348;SDS011;5974;42.710;27.258;2023-07-24T01:21:37;7.27;;;6.40;;
12348;SDS011;5974;42.710;27.258;2023-07-24T01:24:17;7.07;;;6.27;;
12348;SDS011;5974;42.710;27.258;2023-07-24T01:26:52;7.00;;;6.50;;
12348;SDS011;5974;42.710;27.258;2023-07-24T01:29:19;6.63;;;6.03;;
12348;SDS011;5974;42.710;27.258;2023-07-24T01:31:46;6.57;;;6.07;;
12348;SDS011;5974;42.710;27.258;2023-07-24T01:34:13;6.40;;;5.90;;
12348;SDS011;5974;42.710;27.258;2023-07-24T01:36:42;6.60;;;5.90;;
12348;SDS011;5974;42.710;27.258;2023-07-24T01:39:09;6.70;;;6.00;;
12348;SDS011;5974;42.710;27.258;2023-07-24T01:41:37;6.83;;;6.13;;
12348;SDS011;5974;42.710;27.258;2023-07-24T01:44:06;6.97;;;6.30;;
12348;SDS011;5974;42.710;27.258;2023-07-24T01:46:33;7.37;;;6.50;;
12348;SDS011;5974;42.710;27.258;2023-07-24T01:49:00;10.47;;;6.70;;
12348;SDS011;5974;42.710;27.258;2023-07-24T01:51:26;7.20;;;6.50;;
12348;SDS011;5974;42.710;27.258;2023-07-24T01:53:53;7.33;;;6.63;;
12348;SDS011;5974;42.710;27.258;2023-07-24T01:56:20;7.70;;;6.13;;
12348;SDS011;5974;42.710;27.258;2023-07-24T01:58:47;6.87;;;6.17;;
12348;SDS011;5974;42.710;27.258;2023-07-24T02:01:15;7.20;;;6.50;;
12348;SDS011;5974;42.710;27.258;2023-07-24T02:03:42;7.20;;;6.50;;
12348;SDS011;5974;42.710;27.258;2023-07-24T02:06:09;7.00;;;6.30;;
12348;SDS011;5974;42.710;27.258;2023-07-24T02:08:36;6.77;;;6.13;;
12348;SDS011;5974;42.710;27.258;2023-07-24T02:11:06;6.97;;;6.30;;
12348;SDS011;5974;42.710;27.258;2023-07-24T02:13:33;7.83;;;7.10;;
12348;SDS011;5974;42.710;27.258;2023-07-24T02:16:00;7.33;;;6.70;;
12348;SDS011;5974;42.710;27.258;2023-07-24T02:18:28;8.73;;;7.10;;
12348;SDS011;5974;42.710;27.258;2023-07-24T02:20:55;6.70;;;6.10;;
12348;SDS011;5974;42.710;27.258;2023-07-24T02:23:22;7.87;;;6.60;;
12348;SDS011;5974;42.710;27.258;2023-07-24T02:25:50;8.07;;;6.93;;
12348;SDS011;5974;42.710;27.258;2023-07-24T02:28:18;7.27;;;6.73;;
12348;SDS011;5974;42.710;27.258;2023-07-24T02:30:46;7.30;;;6.20;;
12348;SDS011;5974;42.710;27.258;2023-07-24T02:33:15;6.97;;;6.37;;
12348;SDS011;5974;42.710;27.258;2023-07-24T02:35:44;8.63;;;6.80;;
12348;SDS011;5974;42.710;27.258;2023-07-24T02:38:10;7.40;;;6.70;;
12348;SDS011;5974;42.710;27.258;2023-07-24T02:40:37;8.37;;;6.73;;
12348;SDS011;5974;42.710;27.258;2023-07-24T02:43:07;8.00;;;7.20;;
12348;SDS011;5974;42.710;27.258;2023-07-24T02:45:34;10.60;;;7.00;;
12348;SDS011;5974;42.710;27.258;2023-07-24T02:48:01;7.37;;;6.60;;
12348;SDS011;5974;42.710;27.258;2023-07-24T02:50:28;7.23;;;6.53;;
12348;SDS011;5974;42.710;27.258;2023-07-24T02:52:56;7.27;;;6.57;;
12348;SDS011;5974;42.710;27.258;2023-07-24T02:55:23;6.73;;;6.13;;
12348;SDS011;5974;42.710;27.258;2023-07-24T02:57:50;7.53;;;6.73;;
12348;SDS011;5974;42.710;27.258;2023-07-24T03:00:17;7.63;;;6.63;;
12348;SDS011;5974;42.710;27.258;2023-07-24T03:02:44;7.87;;;7.07;;
12348;SDS011;5974;42.710;27.258;2023-07-24T03:05:11;7.33;;;6.57;;
12348;SDS011;5974;42.710;27.258;2023-07-24T03:07:38;8.37;;;6.43;;
12348;SDS011;5974;42.710;27.258;2023-07-24T03:10:06;7.67;;;6.00;;
12348;SDS011;5974;42.710;27.258;2023-07-24T03:12:34;6.83;;;6.23;;
12348;SDS011;5974;42.710;27.258;2023-07-24T03:15:00;7.43;;;6.73;;
12348;SDS011;5974;42.710;27.258;2023-07-24T03:17:27;7.70;;;6.60;;
12348;SDS011;5974;42.710;27.258;2023-07-24T03:19:54;7.20;;;6.50;;
12348;SDS011;5974;42.710;27.258;2023-07-24T03:22:21;7.97;;;6.87;;
12348;SDS011;5974;42.710;27.258;2023-07-24T03:24:48;10.47;;;7.10;;
12348;SDS011;5974;42.710;27.258;2023-07-24T03:27:16;6.87;;;6.10;;
12348;SDS011;5974;42.710;27.258;2023-07-24T03:29:43;7.67;;;6.67;;
12348;SDS011;5974;42.710;27.258;2023-07-24T03:32:10;6.60;;;5.90;;
12348;SDS011;5974;42.710;27.258;2023-07-24T03:34:36;7.30;;;6.60;;
12348;SDS011;5974;42.710;27.258;2023-07-24T03:37:04;10.07;;;6.50;;
12348;SDS011;5974;42.710;27.258;2023-07-24T03:39:31;6.90;;;6.20;;
12348;SDS011;5974;42.710;27.258;2023-07-24T03:41:58;6.87;;;6.27;;
12348;SDS011;5974;42.710;27.258;2023-07-24T03:44:26;6.77;;;6.17;;
12348;SDS011;5974;42.710;27.258;2023-07-24T03:46:53;6.63;;;5.63;;
12348;SDS011;5974;42.710;27.258;2023-07-24T03:49:19;7.43;;;5.63;;
12348;SDS011;5974;42.710;27.258;2023-07-24T03:51:47;7.63;;;5.53;;
12348;SDS011;5974;42.710;27.258;2023-07-24T03:54:14;6.07;;;5.47;;
12348;SDS011;5974;42.710;27.258;2023-07-24T03:56:41;6.70;;;6.10;;
12348;SDS011;5974;42.710;27.258;2023-07-24T03:59:08;5.90;;;5.47;;
12348;SDS011;5974;42.710;27.258;2023-07-24T04:01:36;8.73;;;5.70;;
12348;SDS011;5974;42.710;27.258;2023-07-24T04:04:03;9.37;;;5.80;;
12348;SDS011;5974;42.710;27.258;2023-07-24T04:06:30;6.73;;;5.97;;
12348;SDS011;5974;42.710;27.258;2023-07-24T04:08:57;6.27;;;5.70;;
12348;SDS011;5974;42.710;27.258;2023-07-24T04:11:23;8.60;;;6.30;;
12348;SDS011;5974;42.710;27.258;2023-07-24T04:13:50;7.03;;;6.00;;
12348;SDS011;5974;42.710;27.258;2023-07-24T04:16:17;7.23;;;5.53;;
12348;SDS011;5974;42.710;27.258;2023-07-24T04:18:45;9.43;;;6.00;;
12348;SDS011;5974;42.710;27.258;2023-07-24T04:21:12;9.67;;;8.67;;
12348;SDS011;5974;42.710;27.258;2023-07-24T04:23:39;6.13;;;5.70;;
12348;SDS011;5974;42.710;27.258;2023-07-24T04:26:06;6.13;;;4.63;;
12348;SDS011;5974;42.710;27.258;2023-07-24T04:28:33;5.80;;;3.90;;
12348;SDS011;5974;42.710;27.258;2023-07-24T04:30:59;4.80;;;3.80;;
12348;SDS011;5974;42.710;27.258;2023-07-24T04:33:27;4.37;;;3.53;;
12348;SDS011;5974;42.710;27.258;2023-07-24T04:35:55;5.47;;;3.90;;
12348;SDS011;5974;42.710;27.258;2023-07-24T04:38:22;3.67;;;3.38;;
12348;SDS011;5974;42.710;27.258;2023-07-24T04:40:49;3.92;;;3.38;;
12348;SDS011;5974;42.710;27.258;2023-07-24T04:43:16;5.22;;;3.83;;
12348;SDS011;5974;42.710;27.258;2023-07-24T04:45:43;3.67;;;3.38;;
12348;SDS011;5974;42.710;27.258;2023-07-24T04:48:10;4.47;;;3.55;;
12348;SDS011;5974;42.710;27.258;2023-07-24T04:50:36;3.80;;;3.50;;
12348;SDS011;5974;42.710;27.258;2023-07-24T04:53:05;3.67;;;3.20;;
12348;SDS011;5974;42.710;27.258;2023-07-24T04:55:32;4.78;;;3.72;;
12348;SDS011;5974;42.710;27.258;2023-07-24T04:57:59;3.90;;;3.60;;
12348;SDS011;5974;42.710;27.258;2023-07-24T05:00:25;5.32;;;4.18;;
12348;SDS011;5974;42.710;27.258;2023-07-24T05:02:52;5.88;;;3.97;;
12348;SDS011;5974;42.710;27.258;2023-07-24T05:05:19;6.35;;;3.90;;
12348;SDS011;5974;42.710;27.258;2023-07-24T05:07:46;4.78;;;3.90;;
12348;SDS011;5974;42.710;27.258;2023-07-24T05:10:14;5.60;;;3.83;;
12348;SDS011;5974;42.710;27.258;2023-07-24T05:12:41;4.50;;;4.10;;
12348;SDS011;5974;42.710;27.258;2023-07-24T05:15:08;4.50;;;4.10;;
12348;SDS011;5974;42.710;27.258;2023-07-24T05:17:36;9.48;;;4.28;;
12348;SDS011;5974;42.710;27.258;2023-07-24T05:20:03;7.05;;;4.10;;
12348;SDS011;5974;42.710;27.258;2023-07-24T05:22:30;7.05;;;3.70;;
12348;SDS011;5974;42.710;27.258;2023-07-24T05:24:57;8.10;;;3.70;;
12348;SDS011;5974;42.710;27.258;2023-07-24T05:27:25;8.23;;;4.20;;
12348;SDS011;5974;42.710;27.258;2023-07-24T05:29:52;8.30;;;4.13;;
12348;SDS011;5974;42.710;27.258;2023-07-24T05:32:19;8.93;;;4.13;;
12348;SDS011;5974;42.710;27.258;2023-07-24T05:34:46;6.80;;;3.60;;
12348;SDS011;5974;42.710;27.258;2023-07-24T05:37:12;7.10;;;3.47;;
12348;SDS011;5974;42.710;27.258;2023-07-24T05:39:39;4.50;;;3.55;;
12348;SDS011;5974;42.710;27.258;2023-07-24T05:42:06;5.32;;;3.63;;
12348;SDS011;5974;42.710;27.258;2023-07-24T05:44:36;3.58;;;3.28;;
12348;SDS011;5974;42.710;27.258;2023-07-24T05:47:05;3.78;;;3.00;;
12348;SDS011;5974;42.710;27.258;2023-07-24T05:49:32;6.50;;;3.42;;
12348;SDS011;5974;42.710;27.258;2023-07-24T05:51:59;3.90;;;3.33;;
12348;SDS011;5974;42.710;27.258;2023-07-24T05:54:25;5.72;;;3.00;;
12348;SDS011;5974;42.710;27.258;2023-07-24T05:56:52;6.80;;;3.20;;
12348;SDS011;5974;42.710;27.258;2023-07-24T05:59:19;4.47;;;3.10;;
12348;SDS011;5974;42.710;27.258;2023-07-24T06:01:47;3.40;;;3.10;;
12348;SDS011;5974;42.710;27.258;2023-07-24T06:04:14;3.95;;;3.30;;
12348;SDS011;5974;42.710;27.258;2023-07-24T06:06:41;3.70;;;3.40;;
12348;SDS011;5974;42.710;27.258;2023-07-24T06:09:09;4.07;;;3.55;;
12348;SDS011;5974;42.710;27.258;2023-07-24T06:11:36;3.60;;;3.30;;
12348;SDS011;5974;42.710;27.258;2023-07-24T06:14:03;4.72;;;3.25;;
12348;SDS011;5974;42.710;27.258;2023-07-24T06:16:30;3.42;;;3.10;;
12348;SDS011;5974;42.710;27.258;2023-07-24T06:18:58;4.50;;;3.22;;
12348;SDS011;5974;42.710;27.258;2023-07-24T06:21:25;4.07;;;3.67;;
12348;SDS011;5974;42.710;27.258;2023-07-24T06:23:51;3.30;;;3.05;;
12348;SDS011;5974;42.710;27.258;2023-07-24T06:26:18;4.43;;;3.25;;
12348;SDS011;5974;42.710;27.258;2023-07-24T06:28:45;4.65;;;3.70;;
12348;SDS011;5974;42.710;27.258;2023-07-24T06:31:12;6.07;;;3.42;;
12348;SDS011;5974;42.710;27.258;2023-07-24T06:33:38;3.55;;;3.25;;
12348;SDS011;5974;42.710;27.258;2023-07-24T06:36:09;3.85;;;3.40;;
12348;SDS011;5974;42.710;27.258;2023-07-24T06:38:37;5.10;;;3.50;;
12348;SDS011;5974;42.710;27.258;2023-07-24T06:41:06;3.38;;;3.10;;
12348;SDS011;5974;42.710;27.258;2023-07-24T06:43:35;4.25;;;3.42;;
12348;SDS011;5974;42.710;27.258;2023-07-24T06:46:02;3.60;;;3.38;;
12348;SDS011;5974;42.710;27.258;2023-07-24T06:48:28;3.72;;;3.42;;
12348;SDS011;5974;42.710;27.258;2023-07-24T06:50:55;4.20;;;3.70;;
12348;SDS011;5974;42.710;27.258;2023-07-24T06:53:23;3.50;;;3.03;;
12348;SDS011;5974;42.710;27.258;2023-07-24T06:55:50;3.45;;;3.15;;
12348;SDS011;5974;42.710;27.258;2023-07-24T06:58:17;3.47;;;3.00;;
12348;SDS011;5974;42.710;27.258;2023-07-24T07:00:44;2.75;;;2.58;;
12348;SDS011;5974;42.710;27.258;2023-07-24T07:03:11;2.88;;;2.67;;
12348;SDS011;5974;42.710;27.258;2023-07-24T07:05:38;3.17;;;2.85;;
12348;SDS011;5974;42.710;27.258;2023-07-24T07:08:04;3.45;;;3.22;;
12348;SDS011;5974;42.710;27.258;2023-07-24T07:10:32;4.78;;;2.90;;
12348;SDS011;5974;42.710;27.258;2023-07-24T07:12:59;3.30;;;3.00;;
12348;SDS011;5974;42.710;27.258;2023-07-24T07:15:26;3.75;;;3.38;;
12348;SDS011;5974;42.710;27.258;2023-07-24T07:17:53;3.30;;;2.95;;
12348;SDS011;5974;42.710;27.258;2023-07-24T07:20:20;3.97;;;2.67;;
12348;SDS011;5974;42.710;27.258;2023-07-24T07:22:47;3.55;;;2.65;;
12348;SDS011;5974;42.710;27.258;2023-07-24T07:25:15;3.13;;;2.83;;
12348;SDS011;5974;42.710;27.258;2023-07-24T07:27:46;2.72;;;2.50;;
12348;SDS011;5974;42.710;27.258;2023-07-24T07:30:15;2.10;;;1.92;;
12348;SDS011;5974;42.710;27.258;2023-07-24T07:32:42;2.10;;;2.00;;
12348;SDS011;5974;42.710;27.258;2023-07-24T07:35:09;2.10;;;2.00;;
12348;SDS011;5974;42.710;27.258;2023-07-24T07:37:36;2.30;;;2.20;;
12348;SDS011;5974;42.710;27.258;2023-07-24T07:40:03;5.45;;;2.40;;
12348;SDS011;5974;42.710;27.258;2023-07-24T07:42:31;2.80;;;2.60;;
12348;SDS011;5974;42.710;27.258;2023-07-24T07:44:59;3.75;;;2.50;;
12348;SDS011;5974;42.710;27.258;2023-07-24T07:47:26;2.85;;;2.70;;
12348;SDS011;5974;42.710;27.258;2023-07-24T07:49:53;3.03;;;2.83;;
12348;SDS011;5974;42.710;27.258;2023-07-24T07:52:20;3.00;;;2.80;;
12348;SDS011;5974;42.710;27.258;2023-07-24T07:54:47;5.13;;;2.70;;
12348;SDS011;5974;42.710;27.258;2023-07-24T07:57:14;2.95;;;2.70;;
12348;SDS011;5974;42.710;27.258;2023-07-24T07:59:41;3.08;;;2.80;;
12348;SDS011;5974;42.710;27.258;2023-07-24T08:02:09;3.03;;;2.50;;
12348;SDS011;5974;42.710;27.258;2023-07-24T08:04:36;3.28;;;2.70;;
12348;SDS011;5974;42.710;27.258;2023-07-24T08:07:03;2.90;;;2.70;;
12348;SDS011;5974;42.710;27.258;2023-07-24T08:09:30;2.67;;;2.50;;
12348;SDS011;5974;42.710;27.258;2023-07-24T08:11:57;3.00;;;2.80;;
12348;SDS011;5974;42.710;27.258;2023-07-24T08:17:01;3.28;;;2.97;;
12348;SDS011;5974;42.710;27.258;2023-07-24T08:19:29;3.30;;;2.83;;
12348;SDS011;5974;42.710;27.258;2023-07-24T08:21:56;2.85;;;2.60;;
12348;SDS011;5974;42.710;27.258;2023-07-24T08:24:23;2.88;;;2.67;;
12348;SDS011;5974;42.710;27.258;2023-07-24T08:26:50;2.95;;;2.75;;
12348;SDS011;5974;42.710;27.258;2023-07-24T08:29:17;3.10;;;2.90;;
12348;SDS011;5974;42.710;27.258;2023-07-24T08:31:43;2.75;;;2.55;;
12348;SDS011;5974;42.710;27.258;2023-07-24T08:34:10;3.05;;;2.85;;
12348;SDS011;5974;42.710;27.258;2023-07-24T08:36:38;4.50;;;3.17;;
12348;SDS011;5974;42.710;27.258;2023-07-24T08:39:05;2.70;;;2.50;;
12348;SDS011;5974;42.710;27.258;2023-07-24T08:41:32;3.60;;;2.40;;
12348;SDS011;5974;42.710;27.258;2023-07-24T08:44:00;2.67;;;2.47;;
12348;SDS011;5974;42.710;27.258;2023-07-24T08:46:27;3.00;;;2.80;;
12348;SDS011;5974;42.710;27.258;2023-07-24T08:48:54;4.20;;;2.73;;
12348;SDS011;5974;42.710;27.258;2023-07-24T08:51:22;2.97;;;2.70;;
12348;SDS011;5974;42.710;27.258;2023-07-24T08:53:50;3.13;;;2.45;;
12348;SDS011;5974;42.710;27.258;2023-07-24T08:56:17;2.70;;;2.50;;
12348;SDS011;5974;42.710;27.258;2023-07-24T08:58:44;2.60;;;2.42;;
12348;SDS011;5974;42.710;27.258;2023-07-24T09:01:11;5.07;;;3.20;;
12348;SDS011;5974;42.710;27.258;2023-07-24T09:03:38;2.90;;;2.70;;
12348;SDS011;5974;42.710;27.258;2023-07-24T09:06:05;3.10;;;2.90;;
12348;SDS011;5974;42.710;27.258;2023-07-24T09:08:33;3.30;;;3.10;;
12348;SDS011;5974;42.710;27.258;2023-07-24T09:11:03;5.30;;;3.38;;
12348;SDS011;5974;42.710;27.258;2023-07-24T09:13:30;3.58;;;3.28;;
12348;SDS011;5974;42.710;27.258;2023-07-24T09:15:58;3.42;;;3.13;;
12348;SDS011;5974;42.710;27.258;2023-07-24T09:18:25;3.33;;;3.13;;
12348;SDS011;5974;42.710;27.258;2023-07-24T09:21:01;3.70;;;3.30;;
12348;SDS011;5974;42.710;27.258;2023-07-24T09:23:27;4.07;;;3.10;;
12348;SDS011;5974;42.710;27.258;2023-07-24T09:25:54;3.97;;;2.80;;
12348;SDS011;5974;42.710;27.258;2023-07-24T09:28:22;3.58;;;3.08;;
12348;SDS011;5974;42.710;27.258;2023-07-24T09:30:53;3.47;;;3.10;;
12348;SDS011;5974;42.710;27.258;2023-07-24T09:33:21;3.42;;;3.13;;
12348;SDS011;5974;42.710;27.258;2023-07-24T09:35:58;3.55;;;3.22;;
12348;SDS011;5974;42.710;27.258;2023-07-24T09:38:25;3.10;;;2.80;;
12348;SDS011;5974;42.710;27.258;2023-07-24T09:40:52;3.10;;;2.80;;
12348;SDS011;5974;42.710;27.258;2023-07-24T09:43:21;3.40;;;3.13;;
12348;SDS011;5974;42.710;27.258;2023-07-24T09:45:50;3.80;;;3.22;;
12348;SDS011;5974;42.710;27.258;2023-07-24T09:48:18;3.20;;;3.00;;
12348;SDS011;5974;42.710;27.258;2023-07-24T09:50:46;3.25;;;3.05;;
12348;SDS011;5974;42.710;27.258;2023-07-24T09:53:22;4.00;;;2.95;;
12348;SDS011;5974;42.710;27.258;2023-07-24T09:55:58;2.97;;;2.78;;
12348;SDS011;5974;42.710;27.258;2023-07-24T09:58:27;5.10;;;2.80;;
12348;SDS011;5974;42.710;27.258;2023-07-24T10:00:56;3.10;;;2.90;;
12348;SDS011;5974;42.710;27.258;2023-07-24T10:03:23;3.17;;;2.97;;
12348;SDS011;5974;42.710;27.258;2023-07-24T10:05:52;3.00;;;2.75;;
12348;SDS011;5974;42.710;27.258;2023-07-24T10:08:19;2.80;;;2.60;;
12348;SDS011;5974;42.710;27.258;2023-07-24T10:10:46;3.72;;;2.88;;
12348;SDS011;5974;42.710;27.258;2023-07-24T10:13:16;3.03;;;2.83;;
12348;SDS011;5974;42.710;27.258;2023-07-24T10:15:46;3.40;;;3.20;;
12348;SDS011;5974;42.710;27.258;2023-07-24T10:18:15;3.10;;;2.90;;
12348;SDS011;5974;42.710;27.258;2023-07-24T10:20:43;3.92;;;3.38;;
12348;SDS011;5974;42.710;27.258;2023-07-24T10:23:11;3.00;;;2.80;;
12348;SDS011;5974;42.710;27.258;2023-07-24T10:25:44;3.72;;;3.03;;
12348;SDS011;5974;42.710;27.258;2023-07-24T10:28:12;3.53;;;3.00;;
12348;SDS011;5974;42.710;27.258;2023-07-24T10:30:41;3.30;;;3.00;;
12348;SDS011;5974;42.710;27.258;2023-07-24T10:33:10;4.95;;;3.00;;
12348;SDS011;5974;42.710;27.258;2023-07-24T10:35:41;2.97;;;2.78;;
12348;SDS011;5974;42.710;27.258;2023-07-24T10:38:12;3.05;;;2.80;;
12348;SDS011;5974;42.710;27.258;2023-07-24T10:40:41;3.42;;;3.22;;
12348;SDS011;5974;42.710;27.258;2023-07-24T10:43:09;3.28;;;3.05;;
12348;SDS011;5974;42.710;27.258;2023-07-24T10:45:41;4.75;;;3.10;;
12348;SDS011;5974;42.710;27.258;2023-07-24T10:48:09;3.60;;;3.30;;
12348;SDS011;5974;42.710;27.258;2023-07-24T10:50:38;3.08;;;2.85;;
12348;SDS011;5974;42.710;27.258;2023-07-24T10:53:05;3.00;;;2.80;;
12348;SDS011;5974;42.710;27.258;2023-07-24T10:55:32;3.40;;;3.05;;
12348;SDS011;5974;42.710;27.258;2023-07-24T10:57:59;3.45;;;2.75;;
12348;SDS011;5974;42.710;27.258;2023-07-24T11:00:26;3.67;;;3.38;;
12348;SDS011;5974;42.710;27.258;2023-07-24T11:02:53;3.35;;;3.15;;
12348;SDS011;5974;42.710;27.258;2023-07-24T11:05:22;3.72;;;3.30;;
12348;SDS011;5974;42.710;27.258;2023-07-24T11:07:49;3.08;;;2.88;;
12348;SDS011;5974;42.710;27.258;2023-07-24T11:10:17;5.07;;;3.38;;
12348;SDS011;5974;42.710;27.258;2023-07-24T11:12:44;3.40;;;3.20;;
12348;SDS011;5974;42.710;27.258;2023-07-24T11:15:11;4.65;;;3.08;;
12348;SDS011;5974;42.710;27.258;2023-07-24T11:17:39;3.97;;;3.20;;
12348;SDS011;5974;42.710;27.258;2023-07-24T11:20:08;3.38;;;3.15;;
12348;SDS011;5974;42.710;27.258;2023-07-24T11:22:39;3.92;;;3.63;;
12348;SDS011;5974;42.710;27.258;2023-07-24T11:25:07;4.53;;;3.22;;
12348;SDS011;5974;42.710;27.258;2023-07-24T11:27:38;3.67;;;3.30;;
12348;SDS011;5974;42.710;27.258;2023-07-24T11:30:07;3.85;;;3.50;;
12348;SDS011;5974;42.710;27.258;2023-07-24T11:32:35;5.13;;;3.50;;
12348;SDS011;5974;42.710;27.258;2023-07-24T11:35:04;4.03;;;3.58;;
12348;SDS011;5974;42.710;27.258;2023-07-24T11:37:31;4.90;;;3.30;;
12348;SDS011;5974;42.710;27.258;2023-07-24T11:40:00;5.63;;;3.28;;
12348;SDS011;5974;42.710;27.258;2023-07-24T11:42:30;3.50;;;3.20;;
12348;SDS011;5974;42.710;27.258;2023-07-24T11:45:00;7.70;;;3.97;;
12348;SDS011;5974;42.710;27.258;2023-07-24T11:47:27;3.60;;;3.30;;
12348;SDS011;5974;42.710;27.258;2023-07-24T11:50:00;6.47;;;3.72;;
12348;SDS011;5974;42.710;27.258;2023-07-24T11:52:37;4.38;;;3.42;;
12348;SDS011;5974;42.710;27.258;2023-07-24T11:55:07;3.97;;;3.42;;
12348;SDS011;5974;42.710;27.258;2023-07-24T11:57:34;3.45;;;3.15;;
12348;SDS011;5974;42.710;27.258;2023-07-24T12:00:01;3.95;;;3.65;;
12348;SDS011;5974;42.710;27.258;2023-07-24T12:02:31;3.60;;;3.33;;
12348;SDS011;5974;42.710;27.258;2023-07-24T12:04:58;3.65;;;3.33;;
12348;SDS011;5974;42.710;27.258;2023-07-24T12:07:30;3.63;;;3.20;;
12348;SDS011;5974;42.710;27.258;2023-07-24T12:09:58;3.65;;;3.30;;
12348;SDS011;5974;42.710;27.258;2023-07-24T12:15:16;3.72;;;3.42;;
12348;SDS011;5974;42.710;27.258;2023-07-24T12:17:43;3.67;;;3.35;;
12348;SDS011;5974;42.710;27.258;2023-07-24T12:20:10;3.03;;;2.83;;
12348;SDS011;5974;42.710;27.258;2023-07-24T12:22:37;3.83;;;3.45;;
12348;SDS011;5974;42.710;27.258;2023-07-24T12:25:05;5.40;;;3.37;;
12348;SDS011;5974;42.710;27.258;2023-07-24T12:27:33;3.88;;;3.47;;
12348;SDS011;5974;42.710;27.258;2023-07-24T12:30:01;5.50;;;3.38;;
12348;SDS011;5974;42.710;27.258;2023-07-24T12:32:28;3.38;;;3.10;;
12348;SDS011;5974;42.710;27.258;2023-07-24T12:34:55;3.67;;;3.38;;
12348;SDS011;5974;42.710;27.258;2023-07-24T12:37:22;3.83;;;3.15;;
12348;SDS011;5974;42.710;27.258;2023-07-24T12:39:49;3.58;;;3.28;;
12348;SDS011;5974;42.710;27.258;2023-07-24T12:42:16;3.85;;;3.30;;
12348;SDS011;5974;42.710;27.258;2023-07-24T12:44:43;4.18;;;2.80;;
12348;SDS011;5974;42.710;27.258;2023-07-24T12:47:11;3.28;;;3.00;;
12348;SDS011;5974;42.710;27.258;2023-07-24T12:49:38;3.20;;;3.00;;
12348;SDS011;5974;42.710;27.258;2023-07-24T12:52:05;3.25;;;3.05;;
12348;SDS011;5974;42.710;27.258;2023-07-24T12:54:33;3.42;;;3.13;;
12348;SDS011;5974;42.710;27.258;2023-07-24T12:57:00;4.77;;;3.13;;
12348;SDS011;5974;42.710;27.258;2023-07-24T12:59:27;3.10;;;2.80;;
12348;SDS011;5974;42.710;27.258;2023-07-24T13:01:56;3.47;;;3.13;;
12348;SDS011;5974;42.710;27.258;2023-07-24T13:04:24;4.60;;;3.00;;
12348;SDS011;5974;42.710;27.258;2023-07-24T13:06:51;3.50;;;3.23;;
12348;SDS011;5974;42.710;27.258;2023-07-24T13:09:19;4.40;;;2.97;;
12348;SDS011;5974;42.710;27.258;2023-07-24T13:11:46;3.30;;;3.00;;
12348;SDS011;5974;42.710;27.258;2023-07-24T13:14:13;4.43;;;3.20;;
12348;SDS011;5974;42.710;27.258;2023-07-24T13:16:40;3.83;;;2.73;;
12348;SDS011;5974;42.710;27.258;2023-07-24T13:19:07;3.23;;;3.03;;
12348;SDS011;5974;42.710;27.258;2023-07-24T13:21:36;4.47;;;3.30;;
12348;SDS011;5974;42.710;27.258;2023-07-24T13:24:03;4.28;;;3.50;;
12348;SDS011;5974;42.710;27.258;2023-07-24T13:26:31;3.30;;;3.00;;
12348;SDS011;5974;42.710;27.258;2023-07-24T13:28:57;4.17;;;3.07;;
12348;SDS011;5974;42.710;27.258;2023-07-24T13:31:24;3.40;;;3.10;;
12348;SDS011;5974;42.710;27.258;2023-07-24T13:33:53;2.90;;;2.63;;
12348;SDS011;5974;42.710;27.258;2023-07-24T13:36:20;8.37;;;3.13;;
12348;SDS011;5974;42.710;27.258;2023-07-24T13:38:48;4.10;;;2.90;;
12348;SDS011;5974;42.710;27.258;2023-07-24T13:41:15;4.17;;;3.33;;
12348;SDS011;5974;42.710;27.258;2023-07-24T13:43:41;4.07;;;3.23;;
12348;SDS011;5974;42.710;27.258;2023-07-24T13:46:08;3.13;;;2.93;;
12348;SDS011;5974;42.710;27.258;2023-07-24T13:48:35;4.37;;;3.30;;
12348;SDS011;5974;42.710;27.258;2023-07-24T13:51:01;3.20;;;2.90;;
12348;SDS011;5974;42.710;27.258;2023-07-24T13:53:28;4.20;;;3.33;;
12348;SDS011;5974;42.710;27.258;2023-07-24T13:55:57;3.10;;;2.90;;
12348;SDS011;5974;42.710;27.258;2023-07-24T13:58:25;2.80;;;2.70;;
12348;SDS011;5974;42.710;27.258;2023-07-24T14:00:52;3.67;;;2.67;;
12348;SDS011;5974;42.710;27.258;2023-07-24T14:03:19;3.30;;;3.00;;
12348;SDS011;5974;42.710;27.258;2023-07-24T14:05:46;3.77;;;2.60;;
12348;SDS011;5974;42.710;27.258;2023-07-24T14:08:13;3.33;;;3.03;;
12348;SDS011;5974;42.710;27.258;2023-07-24T14:10:39;2.90;;;2.70;;
12348;SDS011;5974;42.710;27.258;2023-07-24T14:13:07;4.03;;;3.30;;
12348;SDS011;5974;42.710;27.258;2023-07-24T14:15:34;3.20;;;2.90;;
12348;SDS011;5974;42.710;27.258;2023-07-24T14:18:01;3.13;;;2.93;;
12348;SDS011;5974;42.710;27.258;2023-07-24T14:20:28;2.97;;;2.77;;
12348;SDS011;5974;42.710;27.258;2023-07-24T14:22:55;3.20;;;2.90;;
12348;SDS011;5974;42.710;27.258;2023-07-24T14:25:22;3.57;;;3.10;;
12348;SDS011;5974;42.710;27.258;2023-07-24T14:27:49;4.30;;;2.83;;
12348;SDS011;5974;42.710;27.258;2023-07-24T14:30:17;5.07;;;3.00;;
12348;SDS011;5974;42.710;27.258;2023-07-24T14:32:44;3.00;;;2.80;;
12348;SDS011;5974;42.710;27.258;2023-07-24T14:35:11;3.30;;;3.00;;
12348;SDS011;5974;42.710;27.258;2023-07-24T14:37:38;3.03;;;2.73;;
12348;SDS011;5974;42.710;27.258;2023-07-24T14:40:05;3.07;;;2.80;;
12348;SDS011;5974;42.710;27.258;2023-07-24T14:42:33;4.60;;;2.97;;
12348;SDS011;5974;42.710;27.258;2023-07-24T14:44:59;3.23;;;2.90;;
12348;SDS011;5974;42.710;27.258;2023-07-24T14:47:30;3.40;;;3.10;;
12348;SDS011;5974;42.710;27.258;2023-07-24T14:49:57;3.90;;;2.87;;
12348;SDS011;5974;42.710;27.258;2023-07-24T14:52:24;3.17;;;2.90;;
12348;SDS011;5974;42.710;27.258;2023-07-24T14:54:51;2.93;;;2.73;;